createdAt,value
2022-08-29T00:02:02.187Z,21.50
2022-08-29T00:04:32.255Z,21.50
2022-08-29T00:07:04.454Z,21.40
2022-08-29T00:09:35.698Z,21.40
2022-08-29T00:12:05.918Z,21.40
2022-08-29T00:14:35.704Z,21.50
2022-08-29T00:17:05.643Z,21.60
2022-08-29T00:19:35.323Z,21.60
2022-08-29T00:22:06.194Z,21.70
2022-08-29T00:24:37.498Z,21.70
2022-08-29T00:27:09.409Z,21.80
2022-08-29T00:29:40.036Z,21.80
2022-08-29T00:32:09.945Z,21.80
2022-08-29T00:34:39.728Z,21.80
2022-08-29T00:37:09.353Z,21.90
2022-08-29T00:39:44.756Z,21.90
2022-08-29T00:42:14.319Z,21.90
2022-08-29T00:44:46.961Z,21.80
2022-08-29T00:47:28.336Z,21.80
2022-08-29T00:49:59.148Z,21.80
2022-08-29T00:52:34.407Z,21.90
2022-08-29T00:55:10.458Z,21.80
2022-08-29T00:57:44.284Z,21.90
2022-08-29T01:00:15.948Z,21.90
2022-08-29T01:02:48.273Z,21.90
2022-08-29T01:05:25.458Z,22.00
2022-08-29T01:07:56.428Z,22.00
2022-08-29T01:10:47.216Z,22.00
2022-08-29T01:13:19.814Z,22.00
2022-08-29T01:15:58.028Z,21.90
2022-08-29T01:18:29.358Z,22.00
2022-08-29T01:21:09.018Z,22.00
2022-08-29T01:23:46.118Z,21.80
2022-08-29T01:26:17.669Z,21.90
2022-08-29T01:28:51.248Z,21.80
2022-08-29T01:31:37.807Z,21.80
2022-08-29T01:34:17.529Z,21.70
2022-08-29T01:36:54.415Z,21.70
2022-08-29T01:39:26.876Z,21.70
2022-08-29T01:42:01.782Z,21.60
2022-08-29T01:44:31.369Z,21.60
2022-08-29T01:47:03.527Z,21.60
2022-08-29T01:49:35.378Z,21.60
2022-08-29T01:52:08.832Z,21.60
2022-08-29T01:54:39.229Z,21.60
2022-08-29T01:57:13.103Z,21.50
2022-08-29T01:59:44.471Z,21.50
2022-08-29T02:02:18.833Z,21.50
2022-08-29T02:04:49.265Z,21.50
2022-08-29T02:07:21.225Z,21.40
2022-08-29T02:09:56.558Z,21.40
2022-08-29T02:12:32.048Z,21.40
2022-08-29T02:15:04.527Z,21.40
2022-08-29T02:17:34.018Z,21.30
2022-08-29T02:20:05.136Z,21.30
2022-08-29T02:22:37.453Z,21.30
2022-08-29T02:25:29.709Z,21.30
2022-08-29T02:28:02.220Z,21.30
2022-08-29T02:30:32.111Z,21.30
2022-08-29T02:33:06.490Z,21.30
2022-08-29T02:35:42.696Z,21.20
2022-08-29T02:38:13.537Z,21.10
2022-08-29T02:40:44.210Z,21.00
2022-08-29T02:43:16.615Z,20.90
2022-08-29T02:45:47.566Z,20.90
2022-08-29T02:48:18.226Z,21.00
2022-08-29T02:50:50.669Z,21.00
2022-08-29T02:53:25.559Z,21.00
2022-08-29T02:55:55.642Z,21.00
2022-08-29T02:58:30.159Z,21.00
2022-08-29T03:01:00.218Z,21.10
2022-08-29T03:03:30.478Z,21.00
2022-08-29T03:06:00.508Z,21.20
2022-08-29T03:08:30.369Z,21.20
2022-08-29T03:11:01.069Z,21.20
2022-08-29T03:13:34.429Z,21.20
2022-08-29T03:16:05.181Z,21.20
2022-08-29T03:18:35.801Z,21.30
2022-08-29T03:21:05.447Z,21.20
2022-08-29T03:23:36.417Z,21.30
2022-08-29T03:26:06.044Z,21.20
2022-08-29T03:28:37.295Z,21.20
2022-08-29T03:31:07.283Z,21.20
2022-08-29T03:33:37.169Z,21.30
2022-08-29T03:36:14.198Z,21.30
2022-08-29T03:38:46.787Z,21.40
2022-08-29T03:41:23.426Z,21.40
2022-08-29T03:43:59.249Z,21.50
2022-08-29T03:46:29.381Z,21.40
2022-08-29T03:48:59.262Z,21.50
2022-08-29T03:51:29.605Z,21.60
2022-08-29T03:53:59.615Z,21.70
2022-08-29T03:56:30.494Z,21.70
2022-08-29T03:59:01.993Z,21.70
2022-08-29T04:01:34.996Z,21.70
2022-08-29T04:04:05.207Z,21.80
2022-08-29T04:06:35.243Z,21.80
2022-08-29T04:09:05.488Z,21.80
2022-08-29T04:11:38.121Z,21.80
2022-08-29T04:14:09.451Z,21.80
2022-08-29T04:16:39.266Z,21.90
2022-08-29T04:19:09.981Z,21.80
2022-08-29T04:28:27.646Z,21.60
2022-08-29T04:59:23.549Z,21.50
2022-08-29T05:01:56.387Z,21.40
2022-08-29T05:04:30.404Z,21.40
2022-08-29T05:07:00.669Z,21.40
2022-08-29T05:09:30.818Z,21.30
2022-08-29T05:12:10.050Z,21.30
2022-08-29T05:14:45.398Z,21.30
2022-08-29T05:17:16.907Z,21.30
2022-08-29T05:19:46.476Z,21.40
2022-08-29T05:22:17.789Z,21.30
2022-08-29T05:24:50.809Z,21.30
2022-08-29T05:27:23.067Z,21.30
2022-08-29T05:29:54.208Z,21.20
2022-08-29T05:32:25.584Z,21.20
2022-08-29T05:34:56.307Z,21.10
2022-08-29T05:37:26.316Z,21.10
2022-08-29T05:39:57.536Z,21.20
2022-08-29T05:42:28.083Z,21.20
2022-08-29T05:44:58.507Z,21.20
2022-08-29T05:47:32.943Z,21.20
2022-08-29T05:50:03.543Z,21.30
2022-08-29T05:52:37.027Z,21.40
2022-08-29T05:55:07.747Z,21.40
2022-08-29T05:57:37.835Z,21.40
2022-08-29T06:00:10.845Z,21.40
2022-08-29T06:02:45.634Z,21.40
2022-08-29T06:05:18.388Z,21.40
2022-08-29T06:07:48.833Z,21.40
2022-08-29T06:10:19.041Z,21.30
2022-08-29T06:12:49.084Z,21.30
2022-08-29T06:15:19.043Z,21.40
2022-08-29T06:17:51.330Z,21.40
2022-08-29T06:20:21.592Z,21.50
2022-08-29T06:22:52.131Z,21.40
2022-08-29T06:25:40.552Z,21.50
2022-08-29T06:28:10.658Z,21.70
2022-08-29T06:30:47.148Z,22.00
2022-08-29T06:33:20.708Z,22.30
2022-08-29T06:35:50.854Z,22.80
2022-08-29T06:38:21.084Z,23.20
2022-08-29T06:40:51.360Z,23.40
2022-08-29T06:43:21.144Z,23.60
2022-08-29T06:45:51.250Z,23.80
2022-08-29T06:48:25.318Z,23.70
2022-08-29T06:50:59.430Z,23.70
2022-08-29T06:53:33.236Z,23.60
2022-08-29T06:56:11.206Z,23.70
2022-08-29T06:58:41.721Z,23.70
2022-08-29T07:01:14.564Z,23.50
2022-08-29T07:03:45.905Z,23.40
2022-08-29T07:06:18.968Z,23.40
2022-08-29T07:08:55.884Z,23.20
2022-08-29T07:11:27.581Z,23.10
2022-08-29T07:14:00.091Z,23.10
2022-08-29T07:16:31.308Z,23.10
2022-08-29T07:19:04.000Z,23.00
2022-08-29T07:21:36.056Z,23.00
2022-08-29T07:24:12.534Z,23.00
2022-08-29T07:26:46.022Z,23.00
2022-08-29T07:29:21.314Z,23.10
2022-08-29T07:31:51.890Z,23.10
2022-08-29T07:34:23.804Z,23.30
2022-08-29T07:37:00.458Z,23.30
2022-08-29T07:39:33.590Z,23.30
2022-08-29T07:42:06.672Z,23.20
2022-08-29T07:44:36.957Z,23.10
2022-08-29T07:47:10.047Z,23.10
2022-08-29T07:49:42.130Z,23.00
2022-08-29T07:52:12.788Z,23.00
2022-08-29T07:54:44.404Z,23.00
2022-08-29T07:57:14.617Z,23.00
2022-08-29T07:59:45.105Z,23.00
2022-08-29T08:02:15.539Z,22.80
2022-08-29T08:04:52.343Z,22.70
2022-08-29T08:07:29.498Z,22.60
2022-08-29T08:10:02.448Z,22.40
2022-08-29T08:12:33.698Z,22.30
2022-08-29T08:15:04.181Z,22.30
2022-08-29T08:17:34.058Z,22.40
2022-08-29T08:20:07.798Z,22.70
2022-08-29T08:22:38.868Z,23.10
2022-08-29T08:25:10.286Z,23.50
2022-08-29T08:27:43.350Z,23.70
2022-08-29T08:30:17.817Z,23.80
2022-08-29T08:32:54.083Z,23.80
2022-08-29T08:35:26.532Z,23.90
2022-08-29T08:37:56.803Z,23.80
2022-08-29T08:40:29.248Z,23.80
2022-08-29T08:43:02.591Z,23.70
2022-08-29T08:45:38.622Z,23.50
2022-08-29T08:48:12.766Z,23.50
2022-08-29T08:50:50.078Z,23.70
2022-08-29T08:53:29.404Z,23.70
2022-08-29T08:56:01.822Z,23.80
2022-08-29T08:58:37.336Z,23.90
2022-08-29T09:01:20.582Z,23.90
2022-08-29T09:04:22.308Z,23.60
2022-08-29T09:07:05.335Z,23.30
2022-08-29T09:09:48.969Z,23.30
2022-08-29T09:12:33.475Z,23.10
2022-08-29T09:15:13.711Z,23.00
2022-08-29T09:17:48.450Z,23.00
2022-08-29T09:20:25.137Z,23.20
2022-08-29T09:23:02.721Z,23.40
2022-08-29T09:25:36.691Z,23.50
2022-08-29T09:28:09.188Z,23.60
2022-08-29T09:30:43.587Z,23.70
2022-08-29T09:33:16.982Z,24.00
2022-08-29T09:35:52.324Z,24.30
2022-08-29T09:38:28.634Z,24.70
2022-08-29T09:41:00.862Z,24.90
2022-08-29T09:43:50.377Z,25.00
2022-08-29T09:46:23.885Z,25.00
2022-08-29T09:48:56.595Z,25.20
2022-08-29T09:51:29.759Z,25.30
2022-08-29T09:54:20.000Z,25.50
2022-08-29T09:56:56.259Z,25.50
2022-08-29T09:59:33.074Z,25.40
2022-08-29T10:02:26.958Z,25.40
2022-08-29T10:05:01.884Z,25.50
2022-08-29T10:07:37.552Z,25.60
2022-08-29T10:10:16.969Z,25.80
2022-08-29T10:12:53.810Z,25.90
2022-08-29T10:15:49.353Z,25.90
2022-08-29T10:18:29.149Z,25.90
2022-08-29T10:21:10.682Z,26.10
2022-08-29T10:23:54.360Z,26.00
2022-08-29T10:26:38.371Z,26.20
2022-08-29T10:29:18.831Z,26.20
2022-08-29T10:32:00.344Z,26.10
2022-08-29T10:34:42.996Z,26.20
2022-08-29T10:37:21.757Z,26.30
2022-08-29T10:39:58.957Z,26.40
2022-08-29T10:42:37.640Z,26.60
2022-08-29T10:45:17.422Z,26.60
2022-08-29T10:47:54.383Z,26.60
2022-08-29T10:50:44.956Z,26.60
2022-08-29T10:53:20.799Z,26.80
2022-08-29T10:55:56.998Z,26.90
2022-08-29T10:58:51.713Z,26.90
2022-08-29T11:01:27.305Z,26.70
2022-08-29T11:04:21.781Z,26.60
2022-08-29T11:06:58.969Z,26.60
2022-08-29T11:09:35.770Z,26.80
2022-08-29T11:12:17.304Z,26.90
2022-08-29T11:14:55.091Z,27.00
2022-08-29T11:17:30.568Z,26.90
2022-08-29T11:20:06.338Z,27.00
2022-08-29T11:22:39.779Z,27.20
2022-08-29T11:25:14.006Z,27.10
2022-08-29T11:27:54.723Z,27.00
2022-08-29T11:30:41.061Z,27.20
2022-08-29T11:33:24.072Z,27.40
2022-08-29T11:36:09.779Z,27.50
2022-08-29T11:39:21.411Z,27.70
2022-08-29T11:41:57.821Z,27.80
2022-08-29T11:44:31.301Z,27.80
2022-08-29T11:47:04.817Z,27.80
2022-08-29T11:49:44.561Z,27.90
2022-08-29T11:52:28.172Z,27.90
2022-08-29T11:55:27.570Z,27.70
2022-08-29T11:58:04.638Z,27.70
2022-08-29T12:00:55.501Z,27.80
2022-08-29T12:03:57.937Z,27.70
2022-08-29T12:07:01.280Z,27.60
2022-08-29T12:09:47.196Z,27.40
2022-08-29T12:12:44.337Z,27.20
2022-08-29T12:15:53.108Z,27.20
2022-08-29T12:18:37.753Z,27.30
2022-08-29T12:21:41.648Z,27.20
2022-08-29T12:24:43.563Z,27.00
2022-08-29T12:27:42.337Z,26.80
2022-08-29T12:30:16.017Z,26.80
2022-08-29T12:33:05.984Z,26.80
2022-08-29T12:36:04.224Z,27.00
2022-08-29T12:38:50.881Z,26.90
2022-08-29T12:41:47.238Z,26.70
2022-08-29T12:44:20.291Z,26.70
2022-08-29T12:46:56.012Z,26.70
2022-08-29T12:49:34.448Z,26.60
2022-08-29T12:52:07.863Z,26.50
2022-08-29T12:54:42.312Z,26.50
2022-08-29T12:57:22.072Z,26.60
2022-08-29T13:21:26.003Z,26.40
2022-08-29T13:24:05.393Z,26.50
2022-08-29T13:26:37.921Z,26.50
2022-08-29T13:29:26.216Z,26.60
2022-08-29T13:32:20.892Z,26.70
2022-08-29T13:35:09.441Z,26.70
2022-08-29T13:37:44.637Z,26.70
2022-08-29T13:40:37.277Z,26.50
2022-08-29T13:43:09.157Z,26.40
2022-08-29T13:45:39.709Z,26.50
2022-08-29T13:48:20.829Z,26.60
2022-08-29T13:50:51.192Z,26.50
2022-08-29T13:53:25.751Z,26.40
2022-08-29T13:55:56.279Z,26.40
2022-08-29T13:58:28.439Z,26.50
2022-08-29T14:00:59.231Z,26.40
2022-08-29T14:03:33.580Z,26.40
2022-08-29T14:06:06.393Z,26.30
2022-08-29T14:08:43.396Z,26.20
2022-08-29T14:11:15.546Z,26.20
2022-08-29T14:13:46.187Z,26.40
2022-08-29T14:16:23.052Z,26.50
2022-08-29T14:18:55.506Z,26.50
2022-08-29T14:21:28.426Z,26.50
2022-08-29T14:24:02.987Z,26.30
2022-08-29T14:26:32.876Z,26.30
2022-08-29T14:29:03.887Z,26.30
2022-08-29T14:31:34.902Z,26.20
2022-08-29T14:34:05.955Z,26.20
2022-08-29T14:36:38.626Z,26.20
2022-08-29T14:39:19.445Z,26.20
2022-08-29T14:41:56.370Z,26.00
2022-08-29T14:44:29.275Z,26.00
2022-08-29T14:46:59.034Z,26.10
2022-08-29T14:49:31.102Z,26.20
2022-08-29T14:52:00.974Z,26.10
2022-08-29T14:54:32.174Z,26.10
2022-08-29T14:57:04.573Z,26.10
2022-08-29T14:59:37.140Z,26.10
2022-08-29T15:02:08.148Z,26.00
2022-08-29T15:04:38.597Z,26.00
2022-08-29T15:07:13.341Z,26.00
2022-08-29T15:09:45.150Z,25.90
2022-08-29T15:12:22.152Z,25.90
2022-08-29T15:14:52.306Z,25.80
2022-08-29T15:17:23.920Z,25.80
2022-08-29T15:22:45.150Z,25.70
2022-08-29T15:25:19.589Z,25.70
2022-08-29T15:27:49.908Z,25.60
2022-08-29T15:30:26.072Z,25.60
2022-08-29T15:32:57.184Z,25.50
2022-08-29T15:35:28.703Z,25.40
2022-08-29T15:38:02.099Z,25.40
2022-08-29T16:13:31.924Z,24.90
2022-08-29T16:16:02.236Z,24.70
2022-08-29T16:18:34.398Z,24.70
2022-08-29T16:21:04.942Z,24.70
2022-08-29T16:23:36.925Z,24.70
2022-08-29T16:26:07.819Z,24.70
2022-08-29T16:28:41.297Z,24.70
2022-08-29T16:31:10.843Z,24.70
2022-08-29T16:33:42.498Z,24.60
2022-08-29T16:36:12.998Z,24.60
2022-08-29T16:38:43.310Z,24.50
2022-08-29T16:41:18.050Z,24.60
2022-08-29T16:43:52.155Z,24.60
2022-08-29T16:46:26.439Z,24.40
2022-08-29T16:49:03.433Z,24.50
2022-08-29T16:51:38.074Z,24.50
2022-08-29T16:54:07.758Z,24.50
2022-08-29T16:56:44.917Z,24.60
2022-08-29T16:59:16.005Z,24.60
2022-08-29T17:01:48.547Z,24.60
2022-08-29T17:04:19.987Z,24.30
2022-08-29T17:06:56.364Z,24.20
2022-08-29T17:09:25.108Z,24.10
2022-08-29T17:11:56.335Z,23.90
2022-08-29T17:14:26.853Z,23.90
2022-08-29T17:17:00.827Z,23.90
2022-08-29T17:19:33.267Z,23.80
2022-08-29T17:22:03.205Z,23.70
2022-08-29T17:24:35.505Z,23.60
2022-08-29T17:27:04.935Z,23.50
2022-08-29T17:29:36.068Z,23.40
2022-08-29T17:32:07.160Z,23.30
2022-08-29T17:34:36.438Z,23.20
2022-08-29T17:37:06.965Z,23.20
2022-08-29T17:39:39.885Z,23.10
2022-08-29T17:42:09.595Z,23.00
2022-08-29T17:44:40.419Z,22.90
2022-08-29T17:47:09.910Z,22.90
2022-08-29T17:49:41.856Z,22.90
2022-08-29T17:52:11.508Z,22.80
2022-08-29T17:54:44.469Z,22.80
2022-08-29T17:57:14.602Z,22.70
2022-08-29T17:59:45.925Z,22.60
2022-08-29T18:02:17.323Z,22.50
2022-08-29T18:04:46.815Z,22.50
2022-08-29T18:07:18.969Z,22.40
2022-08-29T18:09:51.354Z,22.40
2022-08-29T18:12:20.785Z,22.40
2022-08-29T18:14:52.702Z,22.40
2022-08-29T18:17:22.174Z,22.40
2022-08-29T18:19:52.171Z,22.30
2022-08-29T18:22:21.598Z,22.20
2022-08-29T18:24:53.451Z,22.10
2022-08-29T18:27:23.138Z,22.20
2022-08-29T18:29:54.370Z,22.10
2022-08-29T18:32:25.733Z,22.10
2022-08-29T18:35:00.632Z,22.10
2022-08-29T18:37:31.819Z,22.00
2022-08-29T18:40:01.386Z,22.00
2022-08-29T18:42:40.922Z,22.00
2022-08-29T18:45:13.652Z,22.00
2022-08-29T18:47:43.043Z,22.00
2022-08-29T18:50:32.366Z,21.90
2022-08-29T18:53:04.525Z,21.80
2022-08-29T18:55:35.922Z,21.70
2022-08-29T18:58:05.817Z,21.70
2022-08-29T19:00:40.177Z,21.70
2022-08-29T19:03:13.142Z,21.60
2022-08-29T19:05:49.798Z,21.60
2022-08-29T19:08:20.975Z,21.50
2022-08-29T19:10:53.751Z,21.50
2022-08-29T19:13:25.860Z,21.50
2022-08-29T19:16:01.875Z,21.50
2022-08-29T19:18:31.604Z,21.40
2022-08-29T19:21:09.480Z,21.40
2022-08-29T19:23:41.555Z,21.40
2022-08-29T19:26:14.644Z,21.40
2022-08-29T19:28:44.586Z,21.40
2022-08-29T19:31:18.085Z,21.40
2022-08-29T19:33:50.540Z,21.40
2022-08-29T19:36:20.088Z,21.30
2022-08-29T19:38:49.881Z,21.30
2022-08-29T19:41:23.287Z,21.20
2022-08-29T19:43:57.327Z,21.20
2022-08-29T19:46:32.706Z,21.20
2022-08-29T19:49:02.755Z,21.20
2022-08-29T19:51:34.071Z,21.10
2022-08-29T19:54:06.351Z,21.00
2022-08-29T19:56:36.522Z,21.00
2022-08-29T19:59:06.994Z,20.90
2022-08-29T20:01:38.274Z,20.90
2022-08-29T20:04:07.960Z,20.90
2022-08-29T20:06:37.452Z,20.80
2022-08-29T20:09:07.054Z,20.70
2022-08-29T20:42:02.581Z,20.30
2022-08-29T20:44:37.096Z,20.30
2022-08-29T20:47:12.517Z,20.20
2022-08-29T20:49:50.712Z,20.20
2022-08-29T20:52:24.567Z,20.20
2022-08-29T20:54:53.834Z,20.20
2022-08-29T20:57:24.682Z,20.20
2022-08-29T20:59:54.224Z,20.20
2022-08-29T21:02:54.818Z,20.20
2022-08-29T21:05:40.227Z,20.10
2022-08-29T21:08:10.249Z,20.10
2022-08-29T21:10:39.578Z,20.00
2022-08-29T21:13:10.766Z,20.00
2022-08-29T21:15:43.823Z,19.90
2022-08-29T21:18:20.226Z,19.90
2022-08-29T21:20:54.409Z,19.90
2022-08-29T21:23:27.680Z,19.90
2022-08-29T21:25:59.245Z,19.90
2022-08-29T21:28:32.544Z,19.80
2022-08-29T21:31:09.289Z,19.80
2022-08-29T21:33:40.123Z,19.80
2022-08-29T21:36:12.824Z,19.70
2022-08-29T21:38:42.832Z,19.70
2022-08-29T21:41:13.841Z,19.60
2022-08-29T21:43:46.500Z,19.60
2022-08-29T21:46:17.827Z,19.50
2022-08-29T21:48:48.480Z,19.50
2022-08-29T21:51:19.238Z,19.40
2022-08-29T21:53:50.328Z,19.50
2022-08-29T21:56:21.719Z,19.40
2022-08-29T21:58:55.188Z,19.50
2022-08-29T22:01:28.036Z,19.50
2022-08-29T22:03:58.870Z,19.40
2022-08-29T22:06:29.300Z,19.40
2022-08-29T22:08:59.779Z,19.30
2022-08-29T22:11:37.653Z,19.30
2022-08-29T22:14:10.269Z,19.30
2022-08-29T22:16:40.201Z,19.30
2022-08-29T22:19:12.325Z,19.30
2022-08-29T22:21:44.910Z,19.20
2022-08-29T22:24:16.556Z,19.20
2022-08-29T22:26:46.477Z,19.20
2022-08-29T22:29:17.754Z,19.20
2022-08-29T22:31:52.322Z,19.20
2022-08-29T22:34:22.114Z,19.20
2022-08-29T22:36:51.927Z,19.10
2022-08-29T22:39:21.616Z,19.00
2022-08-29T22:41:51.613Z,19.10
2022-08-29T22:47:12.516Z,19.00
2022-08-29T22:49:42.401Z,19.00
2022-08-29T22:52:13.124Z,19.00
2022-08-29T22:54:45.884Z,18.90
2022-08-29T22:57:18.092Z,18.90
2022-08-29T22:59:50.279Z,18.90
2022-08-29T23:02:22.236Z,18.80
2022-08-29T23:04:53.142Z,18.80
2022-08-29T23:07:22.979Z,18.80
2022-08-29T23:09:56.151Z,18.80
2022-08-29T23:12:26.044Z,18.80
2022-08-29T23:14:59.893Z,18.70
2022-08-29T23:17:29.582Z,18.70
2022-08-29T23:19:59.248Z,18.70
2022-08-29T23:22:30.647Z,18.70
2022-08-29T23:25:00.543Z,18.70
2022-08-29T23:27:32.065Z,18.70
2022-08-29T23:30:06.201Z,18.70
2022-08-29T23:32:35.963Z,18.60
